Terminal Aerodrome Forecast
Issued by NWS

Home | Current Version | Previous Version | Text Only | Print | Product List | Glossary On
Versions: 1 2 3 4 5 6 7 8 9 10 11 12 13 14 15 16 17 18 19 20 21
377
FTUS41 KOKX 300604 RRA
TAFSWF
TAF
KSWF 300604Z 3006/3112 23005KT 6SM -SHRA SCT030 BKN070
     FM300800 24004KT 2SM SHRA BR SCT007 BKN015
     FM301000 24006KT 3SM SHRA BR SCT005 OVC012
      TEMPO 3010/3014 1SM +SHRA BR BKN005
     FM302200 VRB04KT 5SM SHRA OVC020
     FM310100 VRB03KT P6SM SCT025 BKN200
     FM310400 VRB03KT 4SM BR BKN200
     FM310600 VRB03KT 2SM BR SCT250
      AMD NOT SKED=

USA.gov is the U.S. government's official web portal to all federal, state and local government web resources and services.